Lucerne Valley, CA (92356)

5:24 AM PDT on March 23, 2017 (GMT -0700)
Lucerne Vista | | Change Station

Elev 2908 ft 34.44 °N, 116.93 °W | Updated 5 minutes ago

Partly Cloudy
Partly Cloudy
42.1 °F
Feels Like 39 °F
N
5.3
Wind Variable Wind from SSE

Today
High -- | Low -- °F
--% Chance of Precip.
Yesterday
High -- | Low -- °F
Precip. -- in
Pressure 29.98 in
Visibility 10.0 miles
Clouds Clear
Windchill 39 °F
Dew Point 34 °F
Humidity 74%
Rainfall 0.00 in
Snow Depth Not available.
6:46 AM 7:02 PM
Waning Crescent, 24% visible
METAR KVCV 231155Z AUTO 25012KT 10SM CLR 05/01 A2998 RMK AO2
Pressure 29.98 in
Visibility 10.0 miles
Clouds Clear
Windchill 39 °F
Dew Point 34 °F
Humidity 74%
Rainfall 0.00 in
Snow Depth Not available.
6:46 AM 7:02 PM
Waning Crescent, 24% visible
METAR KVCV 231155Z AUTO 25012KT 10SM CLR 05/01 A2998 RMK AO2

Get Severe Weather Alerts

Thanks for signing up!

Be on the lookout for a verification email in your inbox.

You'll start receiving the daily forecast at 8 AM.

×

10-Day Weather Forecast

Almanac

Astronomy

Mar. 23, 2017 Rise Set
Actual Time
Civil Twilight
Nautical Twilight
Astronomical Twilight
Moon
Length of Visible Light
Length of Day
Tomorrow will be .
, % of the Moon is Illuminated

Today's Extremes

State Highs State Lows

Community

WunderPhotos

Upload Photos

1,962,540 photos uploaded!

WunderBlog® & News

Nearby

Air Quality

  Air Quality AQ Index Pollutant
Not available.

Snow Depth

Station Depth Elevation

Earthquake Activity

City Distance Mag. Time & Date
Minimum magnitude displayed is 2.5.

Earthquake Activity

City Distance Mag. Time & Date
Minimum magnitude displayed is 2.5.

Coastal Water Temperatures

Place Temperature

Stations

Nearby Weather Stations

Station Location Temp. Windchill Dew Point Humidity Wind Precip. Elev Updated Type
                   

Watches & Warnings

There are currently no watches in effect.